createdAt,value
2022-09-06T00:01:13.570Z,0.80
2022-09-06T00:04:41.039Z,1.10
2022-09-06T00:08:08.811Z,1.20
2022-09-06T00:11:35.474Z,1.20
2022-09-06T00:15:02.510Z,1.10
2022-09-06T00:18:29.931Z,1.10
2022-09-06T00:21:56.579Z,0.90
2022-09-06T00:25:23.652Z,0.90
2022-09-06T00:28:50.943Z,1.00
2022-09-06T00:32:17.982Z,1.20
2022-09-06T00:35:47.578Z,1.00
2022-09-06T00:39:14.127Z,1.00
2022-09-06T00:42:49.495Z,1.50
2022-09-06T00:46:20.567Z,1.70
2022-09-06T00:49:52.632Z,1.20
2022-09-06T00:53:19.563Z,1.30
2022-09-06T00:56:47.437Z,1.30
2022-09-06T01:00:16.414Z,1.30
2022-09-06T01:03:44.510Z,1.50
2022-09-06T01:07:21.050Z,1.30
2022-09-06T01:11:03.606Z,1.60
2022-09-06T01:14:48.903Z,1.20
2022-09-06T01:18:30.382Z,1.30
2022-09-06T01:22:06.251Z,1.20
2022-09-06T01:25:47.951Z,1.70
2022-09-06T01:29:24.596Z,1.10
2022-09-06T01:32:58.237Z,1.30
2022-09-06T01:36:29.002Z,1.20
2022-09-06T01:39:56.071Z,1.00
2022-09-06T01:43:26.694Z,1.50
2022-09-06T01:47:02.578Z,1.20
2022-09-06T01:50:47.914Z,1.40
2022-09-06T01:54:35.042Z,1.40
2022-09-06T01:58:24.623Z,1.30
2022-09-06T02:02:01.355Z,1.50
2022-09-06T02:05:34.111Z,1.30
2022-09-06T02:09:07.905Z,1.60
2022-09-06T02:12:38.571Z,1.40
2022-09-06T02:16:09.392Z,1.40
2022-09-06T02:19:44.025Z,1.70
2022-09-06T02:23:11.699Z,1.50
2022-09-06T02:26:42.297Z,1.70
2022-09-06T02:30:11.501Z,1.60
2022-09-06T02:33:39.728Z,1.50
2022-09-06T02:37:06.733Z,1.60
2022-09-06T02:40:34.400Z,1.80
2022-09-06T02:44:00.948Z,1.40
2022-09-06T02:47:27.812Z,1.40
2022-09-06T02:50:55.214Z,1.70
2022-09-06T02:54:21.948Z,1.30
2022-09-06T02:57:49.364Z,1.90
2022-09-06T03:01:16.425Z,1.40
2022-09-06T03:04:43.323Z,1.90
2022-09-06T03:08:10.123Z,1.80
2022-09-06T03:11:36.896Z,1.90
2022-09-06T03:15:03.718Z,1.70
2022-09-06T03:18:32.088Z,1.50
2022-09-06T03:21:59.270Z,1.60
2022-09-06T03:25:26.577Z,1.90
2022-09-06T03:28:56.381Z,2.00
2022-09-06T03:32:25.953Z,1.90
2022-09-06T03:35:55.701Z,1.90
2022-09-06T03:39:23.332Z,2.10
2022-09-06T03:42:51.273Z,2.00
2022-09-06T03:46:18.132Z,2.00
2022-09-06T03:49:45.711Z,2.10
2022-09-06T03:53:13.746Z,2.30
2022-09-06T03:56:48.450Z,3.00
2022-09-06T04:00:17.727Z,2.20
2022-09-06T04:03:44.174Z,1.90
2022-09-06T04:07:11.460Z,2.20
2022-09-06T04:10:38.504Z,1.80
2022-09-06T04:14:06.415Z,2.20
2022-09-06T04:17:38.608Z,2.70
2022-09-06T04:21:05.619Z,1.60
2022-09-06T04:24:32.312Z,2.40
2022-09-06T04:27:59.316Z,2.00
2022-09-06T04:31:27.050Z,2.00
2022-09-06T04:34:53.808Z,1.90
2022-09-06T04:38:22.872Z,2.30
2022-09-06T04:41:50.259Z,2.10
2022-09-06T04:45:17.207Z,1.90
2022-09-06T04:48:45.152Z,2.20
2022-09-06T04:52:12.703Z,2.50
2022-09-06T04:55:40.231Z,2.20
2022-09-06T04:59:07.026Z,2.10
2022-09-06T05:02:34.498Z,2.30
2022-09-06T05:06:13.422Z,2.20
2022-09-06T05:09:40.928Z,2.90
2022-09-06T05:13:07.606Z,2.40
2022-09-06T05:16:34.651Z,2.20
2022-09-06T05:20:01.857Z,2.20
2022-09-06T05:23:30.309Z,2.20
2022-09-06T05:26:56.918Z,1.90
2022-09-06T05:30:23.565Z,1.90
2022-09-06T05:33:50.622Z,1.90
2022-09-06T05:37:18.185Z,1.70
2022-09-06T05:40:45.341Z,1.80
2022-09-06T05:44:12.400Z,1.50
2022-09-06T05:47:39.555Z,1.60
2022-09-06T05:51:09.300Z,1.90
2022-09-06T05:54:37.357Z,1.80
2022-09-06T05:58:04.560Z,1.80
2022-09-06T06:01:33.235Z,1.80
2022-09-06T06:05:03.023Z,2.10
2022-09-06T06:08:30.897Z,2.00
2022-09-06T06:11:58.184Z,2.00
2022-09-06T06:15:25.135Z,1.80
2022-09-06T06:18:52.845Z,2.10
2022-09-06T06:22:26.099Z,1.90
2022-09-06T06:25:54.676Z,1.80
2022-09-06T06:29:25.628Z,2.20
2022-09-06T06:32:52.397Z,2.10
2022-09-06T06:36:26.991Z,1.60
2022-09-06T06:40:09.260Z,2.10
2022-09-06T06:43:38.343Z,2.40
2022-09-06T06:47:05.389Z,2.30
2022-09-06T06:50:37.024Z,2.00
2022-09-06T06:54:04.464Z,2.20
2022-09-06T06:57:31.940Z,2.10
2022-09-06T07:00:59.818Z,2.30
2022-09-06T07:04:26.824Z,1.90
2022-09-06T07:07:54.170Z,2.20
2022-09-06T07:11:28.778Z,1.90
2022-09-06T07:14:57.744Z,2.20
2022-09-06T07:18:24.590Z,1.70
2022-09-06T07:21:52.157Z,1.90
2022-09-06T07:25:21.665Z,1.60
2022-09-06T07:28:49.923Z,2.00
2022-09-06T07:32:18.119Z,1.90
2022-09-06T07:35:45.068Z,1.80
2022-09-06T07:39:12.375Z,1.80
2022-09-06T07:42:39.471Z,1.90
2022-09-06T07:46:11.289Z,1.70
2022-09-06T07:49:40.269Z,1.80
2022-09-06T07:53:14.093Z,2.00
2022-09-06T07:56:45.397Z,1.80
2022-09-06T08:00:13.971Z,1.70
2022-09-06T08:03:40.732Z,1.50
2022-09-06T08:10:54.756Z,1.60
2022-09-06T08:14:46.409Z,1.90
2022-09-06T08:18:34.534Z,1.50
2022-09-06T08:22:01.530Z,1.70
2022-09-06T08:25:30.646Z,1.90
2022-09-06T08:29:00.637Z,1.50
2022-09-06T08:32:27.142Z,1.40
2022-09-06T08:36:00.683Z,1.60
2022-09-06T08:39:37.591Z,1.20
2022-09-06T08:43:04.327Z,2.00
2022-09-06T08:46:38.823Z,1.20
2022-09-06T08:50:08.434Z,1.20
2022-09-06T08:53:38.362Z,1.50
2022-09-06T08:57:20.766Z,1.60
2022-09-06T09:01:03.470Z,1.20
2022-09-06T09:04:34.632Z,1.60
2022-09-06T09:08:16.083Z,1.20
2022-09-06T09:11:46.965Z,1.50
2022-09-06T09:15:18.883Z,1.50
2022-09-06T09:18:49.273Z,1.30
2022-09-06T09:22:19.498Z,1.20
2022-09-06T09:25:47.776Z,2.00
2022-09-06T09:29:17.393Z,0.80
2022-09-06T09:32:47.800Z,1.10
2022-09-06T09:36:16.418Z,0.80
2022-09-06T09:39:43.899Z,0.70
2022-09-06T09:43:21.171Z,0.70
2022-09-06T09:46:48.735Z,0.70
2022-09-06T09:50:28.517Z,0.80
2022-09-06T09:53:58.124Z,0.60
2022-09-06T09:57:27.122Z,0.70
2022-09-06T10:01:19.355Z,0.90
2022-09-06T10:04:51.480Z,0.70
2022-09-06T10:08:18.853Z,1.30
2022-09-06T10:11:56.073Z,0.60
2022-09-06T10:15:38.513Z,0.90
2022-09-06T10:19:26.135Z,0.60
2022-09-06T10:23:02.523Z,0.60
2022-09-06T10:26:36.719Z,0.70
2022-09-06T10:30:06.961Z,0.70
2022-09-06T10:33:50.328Z,0.80
2022-09-06T10:37:39.796Z,1.00
2022-09-06T10:41:23.418Z,0.80
2022-09-06T10:45:06.609Z,0.60
2022-09-06T10:48:37.415Z,0.50
2022-09-06T10:52:15.366Z,0.80
2022-09-06T10:55:48.253Z,0.70
2022-09-06T10:59:40.373Z,0.90
2022-09-06T11:07:17.822Z,0.70
2022-09-06T11:10:48.515Z,0.80
2022-09-06T11:14:16.773Z,0.70
2022-09-06T11:17:57.396Z,0.70
2022-09-06T11:22:04.248Z,0.70
2022-09-06T11:26:03.556Z,0.60
2022-09-06T11:29:36.257Z,0.60
2022-09-06T11:33:14.363Z,0.70
2022-09-06T11:36:47.856Z,0.70
2022-09-06T11:43:56.599Z,0.90
2022-09-06T11:47:42.456Z,1.00
2022-09-06T11:51:12.786Z,0.70
2022-09-06T11:54:46.848Z,1.00
2022-09-06T11:58:27.149Z,0.80
2022-09-06T12:02:15.930Z,0.70
2022-09-06T12:06:13.156Z,0.80
2022-09-06T12:09:41.404Z,0.60
2022-09-06T12:13:41.406Z,0.60
2022-09-06T12:17:29.040Z,0.60
2022-09-06T12:21:10.660Z,0.60
2022-09-06T12:24:59.882Z,0.80
2022-09-06T12:28:40.321Z,0.50
2022-09-06T12:32:08.850Z,0.60
2022-09-06T12:39:24.942Z,1.10
2022-09-06T12:42:53.123Z,0.50
2022-09-06T12:46:20.294Z,0.80
2022-09-06T12:49:47.641Z,0.60
2022-09-06T12:53:25.690Z,0.70
2022-09-06T12:56:53.154Z,1.00
2022-09-06T13:00:21.697Z,0.50
2022-09-06T13:04:01.307Z,0.50
2022-09-06T13:07:34.586Z,0.70
2022-09-06T13:11:02.110Z,0.80
2022-09-06T13:14:32.646Z,0.60
2022-09-06T13:18:23.709Z,0.60
2022-09-06T13:21:51.118Z,0.60
2022-09-06T13:25:27.409Z,0.50
2022-09-06T13:28:54.637Z,0.90
2022-09-06T13:32:21.691Z,0.70
2022-09-06T13:36:06.147Z,0.70
2022-09-06T13:39:38.895Z,0.60
2022-09-06T13:43:15.455Z,0.70
2022-09-06T13:46:47.051Z,0.50
2022-09-06T13:50:14.483Z,0.70
2022-09-06T13:53:41.765Z,0.60
2022-09-06T13:57:10.069Z,1.00
2022-09-06T14:00:38.040Z,0.80
2022-09-06T14:04:07.314Z,0.60
2022-09-06T14:07:35.015Z,0.80
2022-09-06T14:11:03.013Z,0.50
2022-09-06T14:14:30.269Z,0.70
2022-09-06T14:17:57.674Z,0.80
2022-09-06T14:21:25.604Z,0.60
2022-09-06T14:24:55.539Z,0.80
2022-09-06T14:28:22.826Z,1.10
2022-09-06T14:31:49.952Z,1.00
2022-09-06T14:35:17.154Z,0.50
2022-09-06T14:38:45.959Z,0.40
2022-09-06T14:42:13.454Z,0.50
2022-09-06T14:45:40.466Z,0.60
2022-09-06T14:49:10.393Z,0.70
2022-09-06T14:52:39.021Z,0.80
2022-09-06T14:56:12.733Z,0.70
2022-09-06T14:59:39.961Z,0.60
2022-09-06T15:03:16.576Z,0.70
2022-09-06T15:06:49.301Z,0.70
2022-09-06T15:10:16.623Z,0.80
2022-09-06T15:13:44.303Z,0.50
2022-09-06T15:17:12.597Z,0.70
2022-09-06T15:20:39.996Z,0.90
2022-09-06T15:24:11.542Z,0.60
2022-09-06T15:27:39.241Z,0.90
2022-09-06T15:31:06.117Z,1.30
2022-09-06T15:34:34.020Z,1.10
2022-09-06T15:38:01.459Z,0.90
2022-09-06T15:41:30.210Z,0.60
2022-09-06T15:44:56.955Z,0.90
2022-09-06T15:48:26.876Z,0.80
2022-09-06T15:51:54.600Z,0.60
2022-09-06T15:55:41.619Z,0.70
2022-09-06T15:59:10.475Z,0.70
2022-09-06T16:02:37.952Z,0.70
2022-09-06T16:06:26.474Z,0.60
2022-09-06T16:09:54.128Z,0.90
2022-09-06T16:13:21.053Z,0.70
2022-09-06T16:16:48.036Z,0.70
2022-09-06T16:20:15.682Z,0.90
2022-09-06T16:23:44.978Z,0.70
2022-09-06T16:27:13.273Z,0.50
2022-09-06T16:30:44.608Z,0.90
2022-09-06T16:34:14.424Z,0.80
2022-09-06T16:37:46.797Z,0.70
2022-09-06T16:41:18.483Z,1.70
2022-09-06T16:44:45.786Z,1.60
2022-09-06T16:48:16.149Z,1.50
2022-09-06T16:51:45.181Z,2.10
2022-09-06T16:55:16.025Z,2.20
2022-09-06T16:58:43.966Z,1.80
2022-09-06T17:02:14.797Z,1.50
2022-09-06T17:05:43.044Z,1.20
2022-09-06T17:09:10.261Z,0.90
2022-09-06T17:12:37.342Z,0.70
2022-09-06T17:16:22.495Z,0.80
2022-09-06T17:19:51.188Z,0.90
2022-09-06T17:23:19.842Z,0.90
2022-09-06T17:26:51.230Z,1.20
2022-09-06T17:30:21.636Z,0.80
2022-09-06T17:33:49.606Z,0.90
2022-09-06T17:37:17.452Z,1.40
2022-09-06T17:40:46.398Z,5.50
2022-09-06T17:44:16.772Z,6.80
2022-09-06T17:47:45.854Z,3.20
2022-09-06T17:51:18.123Z,3.40
2022-09-06T17:54:46.980Z,2.50
2022-09-06T17:58:14.097Z,1.80
2022-09-06T18:01:42.575Z,1.30
2022-09-06T18:05:11.503Z,1.30
2022-09-06T18:08:41.191Z,1.00
2022-09-06T18:12:10.204Z,0.90
2022-09-06T18:15:42.412Z,1.20
2022-09-06T18:19:10.679Z,0.90
2022-09-06T18:22:39.936Z,1.20
2022-09-06T18:26:09.246Z,1.40
2022-09-06T18:29:37.176Z,1.30
2022-09-06T18:33:06.021Z,1.50
2022-09-06T18:36:33.706Z,1.50
2022-09-06T18:40:04.229Z,1.50
2022-09-06T18:43:42.647Z,1.50
2022-09-06T18:47:13.598Z,1.60
2022-09-06T18:50:42.139Z,1.70
2022-09-06T18:54:16.121Z,2.00
2022-09-06T19:01:10.424Z,2.10
2022-09-06T19:04:37.872Z,2.70
2022-09-06T19:08:04.926Z,2.70
2022-09-06T19:11:32.906Z,2.50
2022-09-06T19:15:02.643Z,2.40
2022-09-06T19:18:31.598Z,2.70
2022-09-06T19:22:00.848Z,2.40
2022-09-06T19:25:32.792Z,2.50
2022-09-06T19:29:03.749Z,2.30
2022-09-06T19:32:30.849Z,2.40
2022-09-06T19:36:11.619Z,2.50
2022-09-06T19:39:41.140Z,2.30
2022-09-06T19:43:12.550Z,2.90
2022-09-06T19:46:45.579Z,2.80
2022-09-06T19:50:17.173Z,2.20
2022-09-06T19:53:45.279Z,2.60
2022-09-06T19:57:12.461Z,2.30
2022-09-06T20:00:43.775Z,2.40
2022-09-06T20:04:13.419Z,2.20
2022-09-06T20:07:40.495Z,2.40
2022-09-06T20:11:12.879Z,2.70
2022-09-06T20:14:40.915Z,2.80
2022-09-06T20:18:08.425Z,2.10
2022-09-06T20:21:35.581Z,3.10
2022-09-06T20:25:02.394Z,2.70
2022-09-06T20:28:30.025Z,2.70
2022-09-06T20:32:00.565Z,2.20
2022-09-06T20:35:30.180Z,2.80
2022-09-06T20:38:57.765Z,2.70
2022-09-06T20:42:26.391Z,2.80
2022-09-06T20:45:53.746Z,2.30
2022-09-06T20:49:21.936Z,2.70
2022-09-06T20:52:49.013Z,2.70
2022-09-06T20:56:20.962Z,2.70
2022-09-06T20:59:48.276Z,2.90
2022-09-06T21:03:15.223Z,3.00
2022-09-06T21:06:43.901Z,2.80
2022-09-06T21:10:11.965Z,3.00
2022-09-06T21:13:39.496Z,3.50
2022-09-06T21:17:06.884Z,3.40
2022-09-06T21:20:34.337Z,3.00
2022-09-06T21:24:03.497Z,3.70
2022-09-06T21:27:31.107Z,2.60
2022-09-06T21:31:10.359Z,2.90
2022-09-06T21:34:40.433Z,3.70
2022-09-06T21:38:12.091Z,3.10
2022-09-06T21:41:44.380Z,3.50
2022-09-06T21:45:22.025Z,3.50
2022-09-06T21:48:51.773Z,3.90
2022-09-06T21:52:34.559Z,4.40
2022-09-06T21:56:11.500Z,5.10
2022-09-06T21:59:45.921Z,5.10
2022-09-06T22:03:13.684Z,4.60
2022-09-06T22:06:41.103Z,3.80
2022-09-06T22:10:14.049Z,4.10
2022-09-06T22:13:44.266Z,4.10
2022-09-06T22:17:17.549Z,3.60
2022-09-06T22:20:46.936Z,3.70
2022-09-06T22:24:17.888Z,3.40
2022-09-06T22:27:45.145Z,3.80
2022-09-06T22:31:13.868Z,3.70
2022-09-06T22:34:41.939Z,3.10
2022-09-06T22:38:09.098Z,3.00
2022-09-06T22:41:36.914Z,3.50
2022-09-06T22:45:05.164Z,3.00
2022-09-06T22:48:41.775Z,3.00
2022-09-06T22:52:14.418Z,3.00
2022-09-06T22:55:41.136Z,3.40
2022-09-06T22:59:08.934Z,2.90
2022-09-06T23:02:35.915Z,3.50
2022-09-06T23:06:17.546Z,3.10
2022-09-06T23:09:58.558Z,3.00
2022-09-06T23:13:40.359Z,2.80
2022-09-06T23:17:10.806Z,2.60
2022-09-06T23:20:47.536Z,3.00
2022-09-06T23:24:20.055Z,2.90
2022-09-06T23:27:53.072Z,2.70
2022-09-06T23:31:39.572Z,2.60
2022-09-06T23:35:07.269Z,2.90
2022-09-06T23:38:35.204Z,2.70
2022-09-06T23:42:07.751Z,2.30
2022-09-06T23:45:41.914Z,2.60
2022-09-06T23:49:09.733Z,2.80
2022-09-06T23:52:36.837Z,2.60
2022-09-06T23:56:04.096Z,3.00
2022-09-06T23:59:31.204Z,2.40
